sensor_id;sensor_type;location;lat;lon;timestamp;P1;durP1;ratioP1;P2;durP2;ratioP2
30892;SDS011;17595;50.884;4.346;2022-09-03T00:01:43;6.85;;;2.78;;
30892;SDS011;17595;50.884;4.346;2022-09-03T00:04:21;5.72;;;2.25;;
30892;SDS011;17595;50.884;4.346;2022-09-03T00:06:59;4.43;;;2.70;;
30892;SDS011;17595;50.884;4.346;2022-09-03T00:09:30;6.25;;;2.40;;
30892;SDS011;17595;50.884;4.346;2022-09-03T00:12:05;4.38;;;2.47;;
30892;SDS011;17595;50.884;4.346;2022-09-03T00:14:40;13.93;;;3.10;;
30892;SDS011;17595;50.884;4.346;2022-09-03T00:17:14;16.60;;;3.13;;
30892;SDS011;17595;50.884;4.346;2022-09-03T00:20:06;8.75;;;3.30;;
30892;SDS011;17595;50.884;4.346;2022-09-03T00:22:52;8.38;;;2.80;;
30892;SDS011;17595;50.884;4.346;2022-09-03T00:25:26;4.07;;;2.72;;
30892;SDS011;17595;50.884;4.346;2022-09-03T00:28:01;6.57;;;2.72;;
30892;SDS011;17595;50.884;4.346;2022-09-03T00:30:31;5.20;;;2.83;;
30892;SDS011;17595;50.884;4.346;2022-09-03T00:33:13;4.30;;;2.30;;
30892;SDS011;17595;50.884;4.346;2022-09-03T00:38:14;6.82;;;2.70;;
30892;SDS011;17595;50.884;4.346;2022-09-03T00:52:14;4.65;;;2.40;;
30892;SDS011;17595;50.884;4.346;2022-09-03T00:54:47;6.05;;;3.00;;
30892;SDS011;17595;50.884;4.346;2022-09-03T00:57:29;7.10;;;2.22;;
30892;SDS011;17595;50.884;4.346;2022-09-03T01:00:17;5.55;;;2.45;;
30892;SDS011;17595;50.884;4.346;2022-09-03T01:08:37;5.18;;;2.20;;
30892;SDS011;17595;50.884;4.346;2022-09-03T01:30:07;4.05;;;1.80;;
30892;SDS011;17595;50.884;4.346;2022-09-03T01:40:42;3.63;;;2.63;;
30892;SDS011;17595;50.884;4.346;2022-09-03T01:51:21;2.72;;;2.10;;
30892;SDS011;17595;50.884;4.346;2022-09-03T01:59:36;3.60;;;1.98;;
30892;SDS011;17595;50.884;4.346;2022-09-03T02:02:18;3.08;;;2.30;;
30892;SDS011;17595;50.884;4.346;2022-09-03T02:05:04;2.38;;;2.17;;
30892;SDS011;17595;50.884;4.346;2022-09-03T02:07:36;3.70;;;2.08;;
30892;SDS011;17595;50.884;4.346;2022-09-03T02:10:11;3.25;;;2.47;;
30892;SDS011;17595;50.884;4.346;2022-09-03T02:12:39;3.60;;;2.17;;
30892;SDS011;17595;50.884;4.346;2022-09-03T02:15:11;5.75;;;2.35;;
30892;SDS011;17595;50.884;4.346;2022-09-03T02:17:40;4.60;;;2.63;;
30892;SDS011;17595;50.884;4.346;2022-09-03T02:20:08;4.18;;;2.42;;
30892;SDS011;17595;50.884;4.346;2022-09-03T02:22:37;3.92;;;2.25;;
30892;SDS011;17595;50.884;4.346;2022-09-03T02:25:04;3.53;;;2.05;;
30892;SDS011;17595;50.884;4.346;2022-09-03T02:27:31;6.38;;;2.53;;
30892;SDS011;17595;50.884;4.346;2022-09-03T02:29:57;4.88;;;2.58;;
30892;SDS011;17595;50.884;4.346;2022-09-03T02:32:23;6.15;;;2.70;;
30892;SDS011;17595;50.884;4.346;2022-09-03T02:34:49;4.15;;;2.22;;
30892;SDS011;17595;50.884;4.346;2022-09-03T02:37:16;4.03;;;2.35;;
30892;SDS011;17595;50.884;4.346;2022-09-03T02:39:43;5.17;;;2.40;;
30892;SDS011;17595;50.884;4.346;2022-09-03T02:42:09;4.60;;;2.58;;
30892;SDS011;17595;50.884;4.346;2022-09-03T02:44:38;5.43;;;2.58;;
30892;SDS011;17595;50.884;4.346;2022-09-03T02:47:08;5.32;;;2.53;;
30892;SDS011;17595;50.884;4.346;2022-09-03T02:49:34;6.22;;;2.55;;
30892;SDS011;17595;50.884;4.346;2022-09-03T02:52:01;3.67;;;2.50;;
30892;SDS011;17595;50.884;4.346;2022-09-03T02:54:33;4.95;;;2.55;;
30892;SDS011;17595;50.884;4.346;2022-09-03T02:57:04;8.18;;;2.60;;
30892;SDS011;17595;50.884;4.346;2022-09-03T02:59:33;7.93;;;2.70;;
30892;SDS011;17595;50.884;4.346;2022-09-03T03:01:59;3.03;;;2.72;;
30892;SDS011;17595;50.884;4.346;2022-09-03T03:04:25;3.83;;;2.90;;
30892;SDS011;17595;50.884;4.346;2022-09-03T03:06:50;4.22;;;2.80;;
30892;SDS011;17595;50.884;4.346;2022-09-03T03:09:16;6.00;;;3.03;;
30892;SDS011;17595;50.884;4.346;2022-09-03T03:11:42;3.40;;;2.35;;
30892;SDS011;17595;50.884;4.346;2022-09-03T03:14:08;4.10;;;2.78;;
30892;SDS011;17595;50.884;4.346;2022-09-03T03:16:34;8.18;;;3.40;;
30892;SDS011;17595;50.884;4.346;2022-09-03T03:19:00;8.93;;;3.20;;
30892;SDS011;17595;50.884;4.346;2022-09-03T03:21:26;6.13;;;2.95;;
30892;SDS011;17595;50.884;4.346;2022-09-03T03:23:51;3.42;;;3.10;;
30892;SDS011;17595;50.884;4.346;2022-09-03T03:26:18;3.85;;;3.10;;
30892;SDS011;17595;50.884;4.346;2022-09-03T03:28:48;6.28;;;3.17;;
30892;SDS011;17595;50.884;4.346;2022-09-03T03:31:15;4.80;;;3.72;;
30892;SDS011;17595;50.884;4.346;2022-09-03T03:33:42;4.85;;;3.38;;
30892;SDS011;17595;50.884;4.346;2022-09-03T03:36:09;10.05;;;3.67;;
30892;SDS011;17595;50.884;4.346;2022-09-03T03:38:36;3.83;;;3.22;;
30892;SDS011;17595;50.884;4.346;2022-09-03T03:41:22;4.10;;;3.53;;
30892;SDS011;17595;50.884;4.346;2022-09-03T03:43:55;6.68;;;3.40;;
30892;SDS011;17595;50.884;4.346;2022-09-03T03:46:22;8.45;;;3.53;;
30892;SDS011;17595;50.884;4.346;2022-09-03T03:48:50;7.18;;;4.53;;
30892;SDS011;17595;50.884;4.346;2022-09-03T03:51:17;6.63;;;5.07;;
30892;SDS011;17595;50.884;4.346;2022-09-03T03:53:43;8.77;;;5.25;;
30892;SDS011;17595;50.884;4.346;2022-09-03T03:56:10;9.13;;;4.93;;
30892;SDS011;17595;50.884;4.346;2022-09-03T03:58:37;7.03;;;5.27;;
30892;SDS011;17595;50.884;4.346;2022-09-03T04:01:16;6.28;;;4.95;;
30892;SDS011;17595;50.884;4.346;2022-09-03T04:03:44;7.47;;;5.15;;
30892;SDS011;17595;50.884;4.346;2022-09-03T04:06:10;7.07;;;4.97;;
30892;SDS011;17595;50.884;4.346;2022-09-03T04:08:42;11.95;;;6.53;;
30892;SDS011;17595;50.884;4.346;2022-09-03T04:11:09;9.70;;;6.38;;
30892;SDS011;17595;50.884;4.346;2022-09-03T04:13:40;15.27;;;7.55;;
30892;SDS011;17595;50.884;4.346;2022-09-03T04:16:10;8.25;;;6.60;;
30892;SDS011;17595;50.884;4.346;2022-09-03T04:18:42;7.32;;;6.63;;
30892;SDS011;17595;50.884;4.346;2022-09-03T04:21:09;26.33;;;7.03;;
30892;SDS011;17595;50.884;4.346;2022-09-03T04:23:41;7.10;;;6.43;;
30892;SDS011;17595;50.884;4.346;2022-09-03T04:26:10;8.80;;;6.15;;
30892;SDS011;17595;50.884;4.346;2022-09-03T04:28:38;6.88;;;5.57;;
30892;SDS011;17595;50.884;4.346;2022-09-03T04:31:05;10.07;;;5.78;;
30892;SDS011;17595;50.884;4.346;2022-09-03T04:33:32;6.10;;;4.85;;
30892;SDS011;17595;50.884;4.346;2022-09-03T04:36:03;6.63;;;4.47;;
30892;SDS011;17595;50.884;4.346;2022-09-03T04:38:37;5.82;;;4.75;;
30892;SDS011;17595;50.884;4.346;2022-09-03T04:41:05;6.38;;;4.53;;
30892;SDS011;17595;50.884;4.346;2022-09-03T04:43:32;4.65;;;4.25;;
30892;SDS011;17595;50.884;4.346;2022-09-03T04:45:58;5.03;;;4.63;;
30892;SDS011;17595;50.884;4.346;2022-09-03T04:48:26;4.95;;;4.40;;
30892;SDS011;17595;50.884;4.346;2022-09-03T04:50:52;8.18;;;4.55;;
30892;SDS011;17595;50.884;4.346;2022-09-03T04:53:19;4.97;;;4.47;;
30892;SDS011;17595;50.884;4.346;2022-09-03T04:55:45;6.72;;;4.97;;
30892;SDS011;17595;50.884;4.346;2022-09-03T04:58:10;8.02;;;5.47;;
30892;SDS011;17595;50.884;4.346;2022-09-03T05:00:36;7.05;;;5.07;;
30892;SDS011;17595;50.884;4.346;2022-09-03T05:03:02;7.30;;;5.20;;
30892;SDS011;17595;50.884;4.346;2022-09-03T05:05:29;9.35;;;5.68;;
30892;SDS011;17595;50.884;4.346;2022-09-03T05:07:57;6.80;;;5.93;;
30892;SDS011;17595;50.884;4.346;2022-09-03T05:10:25;5.90;;;5.37;;
30892;SDS011;17595;50.884;4.346;2022-09-03T05:12:58;8.60;;;5.65;;
30892;SDS011;17595;50.884;4.346;2022-09-03T05:15:28;8.02;;;5.63;;
30892;SDS011;17595;50.884;4.346;2022-09-03T05:17:56;9.45;;;6.65;;
30892;SDS011;17595;50.884;4.346;2022-09-03T05:20:23;7.78;;;6.28;;
30892;SDS011;17595;50.884;4.346;2022-09-03T05:22:49;7.53;;;6.13;;
30892;SDS011;17595;50.884;4.346;2022-09-03T05:25:15;7.45;;;6.32;;
30892;SDS011;17595;50.884;4.346;2022-09-03T05:27:40;10.88;;;7.25;;
30892;SDS011;17595;50.884;4.346;2022-09-03T05:30:06;9.55;;;6.63;;
30892;SDS011;17595;50.884;4.346;2022-09-03T05:32:32;7.78;;;6.90;;
30892;SDS011;17595;50.884;4.346;2022-09-03T05:34:58;8.75;;;7.25;;
30892;SDS011;17595;50.884;4.346;2022-09-03T05:37:24;10.15;;;7.35;;
30892;SDS011;17595;50.884;4.346;2022-09-03T05:39:49;10.02;;;7.30;;
30892;SDS011;17595;50.884;4.346;2022-09-03T05:42:15;7.40;;;6.68;;
30892;SDS011;17595;50.884;4.346;2022-09-03T05:44:41;7.45;;;6.75;;
30892;SDS011;17595;50.884;4.346;2022-09-03T05:47:08;7.70;;;6.90;;
30892;SDS011;17595;50.884;4.346;2022-09-03T05:49:33;7.63;;;6.82;;
30892;SDS011;17595;50.884;4.346;2022-09-03T05:51:59;9.65;;;6.90;;
30892;SDS011;17595;50.884;4.346;2022-09-03T05:54:24;10.30;;;6.35;;
30892;SDS011;17595;50.884;4.346;2022-09-03T05:56:50;7.43;;;6.72;;
30892;SDS011;17595;50.884;4.346;2022-09-03T05:59:16;6.90;;;6.20;;
30892;SDS011;17595;50.884;4.346;2022-09-03T06:01:42;6.38;;;5.85;;
30892;SDS011;17595;50.884;4.346;2022-09-03T06:04:13;8.48;;;6.43;;
30892;SDS011;17595;50.884;4.346;2022-09-03T06:06:40;7.13;;;6.47;;
30892;SDS011;17595;50.884;4.346;2022-09-03T06:09:08;7.68;;;6.30;;
30892;SDS011;17595;50.884;4.346;2022-09-03T06:11:35;7.25;;;6.53;;
30892;SDS011;17595;50.884;4.346;2022-09-03T06:14:03;7.10;;;6.40;;
30892;SDS011;17595;50.884;4.346;2022-09-03T06:16:30;6.57;;;5.93;;
30892;SDS011;17595;50.884;4.346;2022-09-03T06:18:57;7.03;;;6.32;;
30892;SDS011;17595;50.884;4.346;2022-09-03T06:21:26;7.45;;;6.30;;
30892;SDS011;17595;50.884;4.346;2022-09-03T06:23:53;7.32;;;6.55;;
30892;SDS011;17595;50.884;4.346;2022-09-03T06:26:23;7.82;;;6.20;;
30892;SDS011;17595;50.884;4.346;2022-09-03T06:28:49;7.90;;;6.88;;
30892;SDS011;17595;50.884;4.346;2022-09-03T06:31:18;7.28;;;6.25;;
30892;SDS011;17595;50.884;4.346;2022-09-03T06:33:45;8.20;;;6.57;;
30892;SDS011;17595;50.884;4.346;2022-09-03T06:36:12;7.50;;;6.80;;
30892;SDS011;17595;50.884;4.346;2022-09-03T06:38:40;9.40;;;6.65;;
30892;SDS011;17595;50.884;4.346;2022-09-03T06:41:17;7.95;;;6.82;;
30892;SDS011;17595;50.884;4.346;2022-09-03T06:43:49;8.43;;;7.50;;
30892;SDS011;17595;50.884;4.346;2022-09-03T06:46:17;7.40;;;6.60;;
30892;SDS011;17595;50.884;4.346;2022-09-03T06:48:45;11.60;;;6.60;;
30892;SDS011;17595;50.884;4.346;2022-09-03T06:51:15;8.65;;;6.50;;
30892;SDS011;17595;50.884;4.346;2022-09-03T06:53:43;7.53;;;6.20;;
30892;SDS011;17595;50.884;4.346;2022-09-03T06:56:11;7.57;;;6.43;;
30892;SDS011;17595;50.884;4.346;2022-09-03T06:58:41;6.97;;;6.00;;
30892;SDS011;17595;50.884;4.346;2022-09-03T07:01:09;9.18;;;6.15;;
30892;SDS011;17595;50.884;4.346;2022-09-03T07:03:37;7.45;;;6.28;;
30892;SDS011;17595;50.884;4.346;2022-09-03T07:06:05;7.60;;;6.38;;
30892;SDS011;17595;50.884;4.346;2022-09-03T07:08:33;7.25;;;6.03;;
30892;SDS011;17595;50.884;4.346;2022-09-03T07:10:59;6.85;;;5.95;;
30892;SDS011;17595;50.884;4.346;2022-09-03T07:13:32;7.10;;;5.97;;
30892;SDS011;17595;50.884;4.346;2022-09-03T07:18:41;7.88;;;6.05;;
30892;SDS011;17595;50.884;4.346;2022-09-03T07:21:12;6.38;;;5.68;;
30892;SDS011;17595;50.884;4.346;2022-09-03T07:23:39;5.63;;;5.18;;
30892;SDS011;17595;50.884;4.346;2022-09-03T07:26:06;7.75;;;5.18;;
30892;SDS011;17595;50.884;4.346;2022-09-03T07:28:34;8.57;;;5.87;;
30892;SDS011;17595;50.884;4.346;2022-09-03T07:31:02;5.57;;;4.45;;
30892;SDS011;17595;50.884;4.346;2022-09-03T07:33:36;5.82;;;4.63;;
30892;SDS011;17595;50.884;4.346;2022-09-03T07:36:06;5.10;;;4.70;;
30892;SDS011;17595;50.884;4.346;2022-09-03T07:38:34;5.03;;;4.63;;
30892;SDS011;17595;50.884;4.346;2022-09-03T07:41:01;5.13;;;4.63;;
30892;SDS011;17595;50.884;4.346;2022-09-03T07:43:28;5.95;;;4.95;;
30892;SDS011;17595;50.884;4.346;2022-09-03T07:45:57;5.35;;;4.75;;
30892;SDS011;17595;50.884;4.346;2022-09-03T07:48:23;7.03;;;4.45;;
30892;SDS011;17595;50.884;4.346;2022-09-03T07:50:49;6.53;;;4.40;;
30892;SDS011;17595;50.884;4.346;2022-09-03T07:53:15;5.65;;;4.40;;
30892;SDS011;17595;50.884;4.346;2022-09-03T07:55:41;5.50;;;4.20;;
30892;SDS011;17595;50.884;4.346;2022-09-03T07:58:08;5.18;;;4.28;;
30892;SDS011;17595;50.884;4.346;2022-09-03T08:00:36;5.35;;;4.50;;
30892;SDS011;17595;50.884;4.346;2022-09-03T08:03:03;4.93;;;3.88;;
30892;SDS011;17595;50.884;4.346;2022-09-03T08:05:32;6.00;;;4.40;;
30892;SDS011;17595;50.884;4.346;2022-09-03T08:08:00;6.20;;;4.30;;
30892;SDS011;17595;50.884;4.346;2022-09-03T08:10:27;8.05;;;4.03;;
30892;SDS011;17595;50.884;4.346;2022-09-03T08:12:56;5.25;;;3.90;;
30892;SDS011;17595;50.884;4.346;2022-09-03T08:15:22;5.00;;;3.95;;
30892;SDS011;17595;50.884;4.346;2022-09-03T08:17:49;10.93;;;4.10;;
30892;SDS011;17595;50.884;4.346;2022-09-03T08:20:15;5.57;;;4.25;;
30892;SDS011;17595;50.884;4.346;2022-09-03T08:22:40;7.65;;;4.40;;
30892;SDS011;17595;50.884;4.346;2022-09-03T08:25:06;6.07;;;3.88;;
30892;SDS011;17595;50.884;4.346;2022-09-03T08:27:32;11.05;;;4.15;;
30892;SDS011;17595;50.884;4.346;2022-09-03T08:29:59;7.32;;;3.90;;
30892;SDS011;17595;50.884;4.346;2022-09-03T08:32:24;11.55;;;4.80;;
30892;SDS011;17595;50.884;4.346;2022-09-03T08:34:50;5.88;;;4.00;;
30892;SDS011;17595;50.884;4.346;2022-09-03T08:37:16;9.45;;;4.25;;
30892;SDS011;17595;50.884;4.346;2022-09-03T08:39:42;6.47;;;4.20;;
30892;SDS011;17595;50.884;4.346;2022-09-03T08:42:14;5.32;;;4.15;;
30892;SDS011;17595;50.884;4.346;2022-09-03T08:44:56;11.40;;;3.97;;
30892;SDS011;17595;50.884;4.346;2022-09-03T08:50:12;5.45;;;4.60;;
30892;SDS011;17595;50.884;4.346;2022-09-03T08:58:27;7.93;;;4.65;;
30892;SDS011;17595;50.884;4.346;2022-09-03T09:06:34;8.45;;;4.65;;
30892;SDS011;17595;50.884;4.346;2022-09-03T09:20:22;5.15;;;4.75;;
30892;SDS011;17595;50.884;4.346;2022-09-03T09:25:31;5.47;;;4.40;;
30892;SDS011;17595;50.884;4.346;2022-09-03T09:28:09;9.68;;;4.85;;
30892;SDS011;17595;50.884;4.346;2022-09-03T09:30:44;5.25;;;4.75;;
30892;SDS011;17595;50.884;4.346;2022-09-03T09:33:12;5.53;;;4.60;;
30892;SDS011;17595;50.884;4.346;2022-09-03T09:35:39;5.68;;;4.00;;
30892;SDS011;17595;50.884;4.346;2022-09-03T09:38:06;6.30;;;5.70;;
30892;SDS011;17595;50.884;4.346;2022-09-03T09:40:38;8.15;;;4.80;;
30892;SDS011;17595;50.884;4.346;2022-09-03T09:43:16;8.18;;;4.75;;
30892;SDS011;17595;50.884;4.346;2022-09-03T09:45:49;10.10;;;5.20;;
30892;SDS011;17595;50.884;4.346;2022-09-03T09:50:41;5.53;;;4.32;;
30892;SDS011;17595;50.884;4.346;2022-09-03T09:53:08;5.35;;;4.68;;
30892;SDS011;17595;50.884;4.346;2022-09-03T09:55:55;5.95;;;4.93;;
30892;SDS011;17595;50.884;4.346;2022-09-03T09:58:27;7.93;;;4.55;;
30892;SDS011;17595;50.884;4.346;2022-09-03T10:03:24;8.10;;;4.63;;
30892;SDS011;17595;50.884;4.346;2022-09-03T10:06:00;5.18;;;3.85;;
